sensor_id;sensor_type;location;lat;lon;timestamp;P1;durP1;ratioP1;P2;durP2;ratioP2
55112;SDS011;41006;50.920;3.456;2023-04-15T00:00:11;29.15;;;27.23;;
55112;SDS011;41006;50.920;3.456;2023-04-15T00:00:45;28.48;;;26.98;;
55112;SDS011;41006;50.920;3.456;2023-04-15T00:01:17;28.02;;;26.63;;
55112;SDS011;41006;50.920;3.456;2023-04-15T00:01:48;27.23;;;25.83;;
55112;SDS011;41006;50.920;3.456;2023-04-15T00:02:18;27.08;;;25.77;;
55112;SDS011;41006;50.920;3.456;2023-04-15T00:02:51;27.17;;;25.58;;
55112;SDS011;41006;50.920;3.456;2023-04-15T00:03:22;27.50;;;26.10;;
55112;SDS011;41006;50.920;3.456;2023-04-15T00:03:52;28.08;;;26.52;;
55112;SDS011;41006;50.920;3.456;2023-04-15T00:04:25;28.85;;;27.40;;
55112;SDS011;41006;50.920;3.456;2023-04-15T00:04:56;27.90;;;26.42;;
55112;SDS011;41006;50.920;3.456;2023-04-15T00:05:28;28.27;;;26.88;;
55112;SDS011;41006;50.920;3.456;2023-04-15T00:05:59;30.00;;;28.30;;
55112;SDS011;41006;50.920;3.456;2023-04-15T00:06:29;29.38;;;27.77;;
55112;SDS011;41006;50.920;3.456;2023-04-15T00:07:00;28.08;;;26.55;;
55112;SDS011;41006;50.920;3.456;2023-04-15T00:07:31;28.20;;;26.70;;
55112;SDS011;41006;50.920;3.456;2023-04-15T00:08:02;27.50;;;26.17;;
55112;SDS011;41006;50.920;3.456;2023-04-15T00:08:32;28.30;;;26.80;;
55112;SDS011;41006;50.920;3.456;2023-04-15T00:09:02;29.15;;;27.65;;
55112;SDS011;41006;50.920;3.456;2023-04-15T00:09:32;31.23;;;29.80;;
55112;SDS011;41006;50.920;3.456;2023-04-15T00:10:03;30.50;;;28.90;;
55112;SDS011;41006;50.920;3.456;2023-04-15T00:10:34;32.00;;;30.27;;
55112;SDS011;41006;50.920;3.456;2023-04-15T00:11:04;30.95;;;29.40;;
55112;SDS011;41006;50.920;3.456;2023-04-15T00:11:35;31.08;;;29.48;;
55112;SDS011;41006;50.920;3.456;2023-04-15T00:12:05;30.85;;;29.38;;
55112;SDS011;41006;50.920;3.456;2023-04-15T00:12:35;30.83;;;29.33;;
55112;SDS011;41006;50.920;3.456;2023-04-15T00:13:06;30.55;;;29.08;;
55112;SDS011;41006;50.920;3.456;2023-04-15T00:13:38;29.80;;;28.30;;
55112;SDS011;41006;50.920;3.456;2023-04-15T00:14:08;31.38;;;29.52;;
55112;SDS011;41006;50.920;3.456;2023-04-15T00:14:39;32.42;;;30.73;;
55112;SDS011;41006;50.920;3.456;2023-04-15T00:15:09;31.48;;;29.98;;
55112;SDS011;41006;50.920;3.456;2023-04-15T00:15:43;31.35;;;29.70;;
55112;SDS011;41006;50.920;3.456;2023-04-15T00:16:13;32.45;;;30.48;;
55112;SDS011;41006;50.920;3.456;2023-04-15T00:16:44;31.67;;;30.05;;
55112;SDS011;41006;50.920;3.456;2023-04-15T00:17:16;32.63;;;30.92;;
55112;SDS011;41006;50.920;3.456;2023-04-15T00:17:48;31.63;;;29.92;;
55112;SDS011;41006;50.920;3.456;2023-04-15T00:18:19;31.65;;;30.05;;
55112;SDS011;41006;50.920;3.456;2023-04-15T00:18:49;31.65;;;29.85;;
55112;SDS011;41006;50.920;3.456;2023-04-15T00:19:19;30.98;;;29.27;;
55112;SDS011;41006;50.920;3.456;2023-04-15T00:19:49;31.33;;;29.60;;
55112;SDS011;41006;50.920;3.456;2023-04-15T00:20:23;30.33;;;28.83;;
55112;SDS011;41006;50.920;3.456;2023-04-15T00:20:56;30.77;;;29.10;;
55112;SDS011;41006;50.920;3.456;2023-04-15T00:21:27;30.13;;;28.52;;
55112;SDS011;41006;50.920;3.456;2023-04-15T00:22:02;30.98;;;29.17;;
55112;SDS011;41006;50.920;3.456;2023-04-15T00:22:32;31.67;;;29.88;;
55112;SDS011;41006;50.920;3.456;2023-04-15T00:23:03;31.50;;;29.70;;
55112;SDS011;41006;50.920;3.456;2023-04-15T00:23:33;31.80;;;30.17;;
55112;SDS011;41006;50.920;3.456;2023-04-15T00:24:07;31.17;;;29.33;;
55112;SDS011;41006;50.920;3.456;2023-04-15T00:24:41;30.83;;;29.05;;
55112;SDS011;41006;50.920;3.456;2023-04-15T00:25:12;31.15;;;29.52;;
55112;SDS011;41006;50.920;3.456;2023-04-15T00:25:42;31.05;;;29.30;;
55112;SDS011;41006;50.920;3.456;2023-04-15T00:26:14;32.05;;;30.35;;
55112;SDS011;41006;50.920;3.456;2023-04-15T00:26:44;31.65;;;29.85;;
55112;SDS011;41006;50.920;3.456;2023-04-15T00:27:17;31.85;;;30.00;;
55112;SDS011;41006;50.920;3.456;2023-04-15T00:27:47;31.55;;;29.77;;
55112;SDS011;41006;50.920;3.456;2023-04-15T00:28:18;30.90;;;29.40;;
55112;SDS011;41006;50.920;3.456;2023-04-15T00:28:48;31.38;;;29.55;;
55112;SDS011;41006;50.920;3.456;2023-04-15T00:29:18;31.90;;;29.80;;
55112;SDS011;41006;50.920;3.456;2023-04-15T00:29:50;30.48;;;28.67;;
55112;SDS011;41006;50.920;3.456;2023-04-15T00:30:21;29.58;;;28.10;;
55112;SDS011;41006;50.920;3.456;2023-04-15T00:30:54;30.73;;;28.92;;
55112;SDS011;41006;50.920;3.456;2023-04-15T00:31:28;30.83;;;29.13;;
55112;SDS011;41006;50.920;3.456;2023-04-15T00:31:59;29.20;;;27.70;;
55112;SDS011;41006;50.920;3.456;2023-04-15T00:32:29;30.00;;;28.23;;
55112;SDS011;41006;50.920;3.456;2023-04-15T00:33:02;28.60;;;27.08;;
55112;SDS011;41006;50.920;3.456;2023-04-15T00:33:32;28.88;;;27.40;;
55112;SDS011;41006;50.920;3.456;2023-04-15T00:34:03;30.00;;;28.40;;
55112;SDS011;41006;50.920;3.456;2023-04-15T00:34:33;29.33;;;27.65;;
55112;SDS011;41006;50.920;3.456;2023-04-15T00:35:06;29.05;;;27.30;;
55112;SDS011;41006;50.920;3.456;2023-04-15T00:35:39;28.25;;;26.33;;
55112;SDS011;41006;50.920;3.456;2023-04-15T00:36:09;27.58;;;26.08;;
55112;SDS011;41006;50.920;3.456;2023-04-15T00:36:42;27.63;;;25.85;;
55112;SDS011;41006;50.920;3.456;2023-04-15T00:37:12;28.15;;;26.73;;
55112;SDS011;41006;50.920;3.456;2023-04-15T00:37:42;29.02;;;27.33;;
55112;SDS011;41006;50.920;3.456;2023-04-15T00:38:13;28.17;;;26.65;;
55112;SDS011;41006;50.920;3.456;2023-04-15T00:38:45;27.30;;;25.77;;
55112;SDS011;41006;50.920;3.456;2023-04-15T00:39:16;28.20;;;26.70;;
55112;SDS011;41006;50.920;3.456;2023-04-15T00:39:48;28.08;;;26.35;;
55112;SDS011;41006;50.920;3.456;2023-04-15T00:40:22;28.13;;;26.45;;
55112;SDS011;41006;50.920;3.456;2023-04-15T00:40:53;28.70;;;27.30;;
55112;SDS011;41006;50.920;3.456;2023-04-15T00:41:24;28.85;;;27.35;;
55112;SDS011;41006;50.920;3.456;2023-04-15T00:41:57;30.00;;;28.40;;
55112;SDS011;41006;50.920;3.456;2023-04-15T00:42:27;29.50;;;27.92;;
55112;SDS011;41006;50.920;3.456;2023-04-15T00:42:57;29.73;;;28.13;;
55112;SDS011;41006;50.920;3.456;2023-04-15T00:43:28;30.15;;;28.52;;
55112;SDS011;41006;50.920;3.456;2023-04-15T00:43:59;30.00;;;28.27;;
55112;SDS011;41006;50.920;3.456;2023-04-15T00:44:32;30.40;;;28.70;;
55112;SDS011;41006;50.920;3.456;2023-04-15T00:45:02;29.88;;;28.27;;
55112;SDS011;41006;50.920;3.456;2023-04-15T00:45:36;30.45;;;28.50;;
55112;SDS011;41006;50.920;3.456;2023-04-15T00:46:06;31.35;;;29.65;;
55112;SDS011;41006;50.920;3.456;2023-04-15T00:46:37;30.13;;;28.40;;
55112;SDS011;41006;50.920;3.456;2023-04-15T00:47:08;29.25;;;27.70;;
55112;SDS011;41006;50.920;3.456;2023-04-15T00:47:40;29.10;;;27.52;;
55112;SDS011;41006;50.920;3.456;2023-04-15T00:48:14;29.00;;;27.50;;
55112;SDS011;41006;50.920;3.456;2023-04-15T00:48:45;30.27;;;28.48;;
55112;SDS011;41006;50.920;3.456;2023-04-15T00:49:20;29.67;;;28.00;;
55112;SDS011;41006;50.920;3.456;2023-04-15T00:49:51;29.73;;;27.80;;
55112;SDS011;41006;50.920;3.456;2023-04-15T00:50:21;29.13;;;27.52;;
55112;SDS011;41006;50.920;3.456;2023-04-15T00:50:52;29.63;;;27.98;;
55112;SDS011;41006;50.920;3.456;2023-04-15T00:51:22;31.17;;;29.45;;
55112;SDS011;41006;50.920;3.456;2023-04-15T00:51:53;30.65;;;29.00;;
55112;SDS011;41006;50.920;3.456;2023-04-15T00:52:23;30.42;;;28.73;;
55112;SDS011;41006;50.920;3.456;2023-04-15T00:52:56;30.70;;;29.10;;
55112;SDS011;41006;50.920;3.456;2023-04-15T00:53:29;30.75;;;29.25;;
55112;SDS011;41006;50.920;3.456;2023-04-15T00:53:59;30.33;;;28.83;;
55112;SDS011;41006;50.920;3.456;2023-04-15T00:54:32;31.52;;;29.85;;
55112;SDS011;41006;50.920;3.456;2023-04-15T00:55:02;31.73;;;30.05;;
55112;SDS011;41006;50.920;3.456;2023-04-15T00:55:33;31.20;;;29.38;;
55112;SDS011;41006;50.920;3.456;2023-04-15T00:56:06;31.17;;;29.55;;
55112;SDS011;41006;50.920;3.456;2023-04-15T00:56:37;31.40;;;29.60;;
55112;SDS011;41006;50.920;3.456;2023-04-15T00:57:09;32.15;;;30.45;;
55112;SDS011;41006;50.920;3.456;2023-04-15T00:57:40;32.05;;;30.33;;
55112;SDS011;41006;50.920;3.456;2023-04-15T00:58:10;30.85;;;29.10;;
55112;SDS011;41006;50.920;3.456;2023-04-15T00:58:43;30.95;;;29.25;;
55112;SDS011;41006;50.920;3.456;2023-04-15T00:59:13;31.02;;;29.42;;
55112;SDS011;41006;50.920;3.456;2023-04-15T00:59:44;30.15;;;28.52;;
55112;SDS011;41006;50.920;3.456;2023-04-15T01:00:14;30.48;;;28.88;;
55112;SDS011;41006;50.920;3.456;2023-04-15T01:00:45;30.60;;;29.15;;
55112;SDS011;41006;50.920;3.456;2023-04-15T01:01:17;29.50;;;28.00;;
55112;SDS011;41006;50.920;3.456;2023-04-15T01:01:51;29.83;;;28.33;;
55112;SDS011;41006;50.920;3.456;2023-04-15T01:02:22;29.63;;;28.00;;
55112;SDS011;41006;50.920;3.456;2023-04-15T01:02:52;30.10;;;28.50;;
55112;SDS011;41006;50.920;3.456;2023-04-15T01:03:22;30.90;;;28.98;;
55112;SDS011;41006;50.920;3.456;2023-04-15T01:03:54;28.27;;;26.77;;
55112;SDS011;41006;50.920;3.456;2023-04-15T01:04:27;29.95;;;28.38;;
55112;SDS011;41006;50.920;3.456;2023-04-15T01:04:57;30.77;;;29.10;;
55112;SDS011;41006;50.920;3.456;2023-04-15T01:05:28;29.85;;;28.25;;
55112;SDS011;41006;50.920;3.456;2023-04-15T01:05:59;29.63;;;28.02;;
55112;SDS011;41006;50.920;3.456;2023-04-15T01:06:30;30.10;;;28.50;;
55112;SDS011;41006;50.920;3.456;2023-04-15T01:07:03;28.67;;;27.17;;
55112;SDS011;41006;50.920;3.456;2023-04-15T01:07:38;28.25;;;26.85;;
55112;SDS011;41006;50.920;3.456;2023-04-15T01:08:08;30.52;;;28.83;;
55112;SDS011;41006;50.920;3.456;2023-04-15T01:08:39;30.17;;;28.30;;
55112;SDS011;41006;50.920;3.456;2023-04-15T01:09:10;29.15;;;27.65;;
55112;SDS011;41006;50.920;3.456;2023-04-15T01:09:42;30.08;;;28.45;;
55112;SDS011;41006;50.920;3.456;2023-04-15T01:10:14;30.55;;;28.85;;
55112;SDS011;41006;50.920;3.456;2023-04-15T01:10:44;28.52;;;27.13;;
55112;SDS011;41006;50.920;3.456;2023-04-15T01:11:15;29.48;;;27.83;;
55112;SDS011;41006;50.920;3.456;2023-04-15T01:11:46;29.52;;;27.98;;
55112;SDS011;41006;50.920;3.456;2023-04-15T01:12:18;28.55;;;26.95;;
55112;SDS011;41006;50.920;3.456;2023-04-15T01:12:49;28.95;;;27.20;;
55112;SDS011;41006;50.920;3.456;2023-04-15T01:13:25;28.92;;;27.33;;
55112;SDS011;41006;50.920;3.456;2023-04-15T01:13:59;31.08;;;29.38;;
55112;SDS011;41006;50.920;3.456;2023-04-15T01:14:32;30.45;;;28.88;;
55112;SDS011;41006;50.920;3.456;2023-04-15T01:15:06;31.77;;;30.02;;
55112;SDS011;41006;50.920;3.456;2023-04-15T01:15:37;32.08;;;30.13;;
55112;SDS011;41006;50.920;3.456;2023-04-15T01:16:07;31.48;;;29.70;;
55112;SDS011;41006;50.920;3.456;2023-04-15T01:16:38;30.25;;;28.75;;
55112;SDS011;41006;50.920;3.456;2023-04-15T01:17:10;29.88;;;28.38;;
55112;SDS011;41006;50.920;3.456;2023-04-15T01:17:43;29.77;;;28.17;;
55112;SDS011;41006;50.920;3.456;2023-04-15T01:18:14;28.38;;;26.92;;
55112;SDS011;41006;50.920;3.456;2023-04-15T01:18:44;29.83;;;28.08;;
55112;SDS011;41006;50.920;3.456;2023-04-15T01:19:17;28.25;;;26.67;;
55112;SDS011;41006;50.920;3.456;2023-04-15T01:19:47;29.15;;;27.55;;
55112;SDS011;41006;50.920;3.456;2023-04-15T01:20:18;29.55;;;27.75;;
55112;SDS011;41006;50.920;3.456;2023-04-15T01:20:49;27.85;;;26.25;;
55112;SDS011;41006;50.920;3.456;2023-04-15T01:21:20;27.30;;;25.73;;
55112;SDS011;41006;50.920;3.456;2023-04-15T01:21:53;27.15;;;25.63;;
55112;SDS011;41006;50.920;3.456;2023-04-15T01:22:24;27.35;;;25.95;;
55112;SDS011;41006;50.920;3.456;2023-04-15T01:22:55;29.17;;;27.38;;
55112;SDS011;41006;50.920;3.456;2023-04-15T01:23:28;26.90;;;25.50;;
55112;SDS011;41006;50.920;3.456;2023-04-15T01:24:01;27.25;;;25.55;;
55112;SDS011;41006;50.920;3.456;2023-04-15T01:24:37;27.17;;;25.65;;
55112;SDS011;41006;50.920;3.456;2023-04-15T01:25:12;25.40;;;23.98;;
55112;SDS011;41006;50.920;3.456;2023-04-15T01:25:44;25.38;;;23.98;;
55112;SDS011;41006;50.920;3.456;2023-04-15T01:26:14;25.77;;;24.13;;
55112;SDS011;41006;50.920;3.456;2023-04-15T01:26:45;25.40;;;24.00;;
55112;SDS011;41006;50.920;3.456;2023-04-15T01:27:16;25.63;;;24.33;;
55112;SDS011;41006;50.920;3.456;2023-04-15T01:27:49;25.65;;;24.15;;
55112;SDS011;41006;50.920;3.456;2023-04-15T01:28:20;25.35;;;24.05;;
55112;SDS011;41006;50.920;3.456;2023-04-15T01:28:52;26.63;;;24.83;;
55112;SDS011;41006;50.920;3.456;2023-04-15T01:29:23;25.38;;;24.00;;
55112;SDS011;41006;50.920;3.456;2023-04-15T01:29:56;26.02;;;24.67;;
55112;SDS011;41006;50.920;3.456;2023-04-15T01:30:26;27.80;;;26.40;;
55112;SDS011;41006;50.920;3.456;2023-04-15T01:31:06;27.77;;;26.17;;
55112;SDS011;41006;50.920;3.456;2023-04-15T01:31:36;26.90;;;25.50;;
55112;SDS011;41006;50.920;3.456;2023-04-15T01:32:07;27.05;;;25.52;;
55112;SDS011;41006;50.920;3.456;2023-04-15T01:32:38;27.17;;;25.80;;
55112;SDS011;41006;50.920;3.456;2023-04-15T01:33:08;26.63;;;25.23;;
55112;SDS011;41006;50.920;3.456;2023-04-15T01:33:41;27.60;;;26.00;;
55112;SDS011;41006;50.920;3.456;2023-04-15T01:34:11;26.98;;;25.38;;
55112;SDS011;41006;50.920;3.456;2023-04-15T01:34:46;25.85;;;24.42;;
55112;SDS011;41006;50.920;3.456;2023-04-15T01:35:16;26.30;;;24.63;;
55112;SDS011;41006;50.920;3.456;2023-04-15T01:35:47;26.60;;;25.00;;
55112;SDS011;41006;50.920;3.456;2023-04-15T01:36:17;25.98;;;24.52;;
55112;SDS011;41006;50.920;3.456;2023-04-15T01:36:50;25.60;;;24.13;;
55112;SDS011;41006;50.920;3.456;2023-04-15T01:37:20;24.60;;;23.40;;
55112;SDS011;41006;50.920;3.456;2023-04-15T01:37:50;25.02;;;23.70;;
55112;SDS011;41006;50.920;3.456;2023-04-15T01:38:25;25.77;;;24.35;;
55112;SDS011;41006;50.920;3.456;2023-04-15T01:38:56;24.67;;;23.40;;
55112;SDS011;41006;50.920;3.456;2023-04-15T01:39:29;24.85;;;23.55;;
55112;SDS011;41006;50.920;3.456;2023-04-15T01:39:59;24.35;;;22.95;;
55112;SDS011;41006;50.920;3.456;2023-04-15T01:40:30;24.45;;;23.15;;
55112;SDS011;41006;50.920;3.456;2023-04-15T01:41:00;24.50;;;23.20;;
55112;SDS011;41006;50.920;3.456;2023-04-15T01:41:31;24.30;;;23.10;;
55112;SDS011;41006;50.920;3.456;2023-04-15T01:42:01;24.63;;;23.42;;
55112;SDS011;41006;50.920;3.456;2023-04-15T01:42:34;25.23;;;24.02;;
55112;SDS011;41006;50.920;3.456;2023-04-15T01:43:05;25.17;;;23.88;;
55112;SDS011;41006;50.920;3.456;2023-04-15T01:43:35;26.17;;;24.52;;
55112;SDS011;41006;50.920;3.456;2023-04-15T01:44:06;25.05;;;23.75;;
55112;SDS011;41006;50.920;3.456;2023-04-15T01:44:37;24.90;;;23.60;;
55112;SDS011;41006;50.920;3.456;2023-04-15T01:45:07;25.70;;;24.27;;
55112;SDS011;41006;50.920;3.456;2023-04-15T01:45:40;25.63;;;24.23;;
55112;SDS011;41006;50.920;3.456;2023-04-15T01:46:10;25.17;;;23.83;;
55112;SDS011;41006;50.920;3.456;2023-04-15T01:46:41;26.42;;;24.83;;
55112;SDS011;41006;50.920;3.456;2023-04-15T01:47:11;25.60;;;24.30;;
55112;SDS011;41006;50.920;3.456;2023-04-15T01:47:47;24.73;;;23.58;;
55112;SDS011;41006;50.920;3.456;2023-04-15T01:48:20;25.13;;;23.92;;
55112;SDS011;41006;50.920;3.456;2023-04-15T01:48:53;25.58;;;24.17;;
55112;SDS011;41006;50.920;3.456;2023-04-15T01:49:23;24.13;;;22.85;;
55112;SDS011;41006;50.920;3.456;2023-04-15T01:49:54;24.00;;;22.75;;
55112;SDS011;41006;50.920;3.456;2023-04-15T01:50:24;24.20;;;22.90;;
55112;SDS011;41006;50.920;3.456;2023-04-15T01:50:56;25.75;;;24.35;;
55112;SDS011;41006;50.920;3.456;2023-04-15T01:51:27;25.23;;;23.70;;
55112;SDS011;41006;50.920;3.456;2023-04-15T01:51:59;24.67;;;23.48;;
55112;SDS011;41006;50.920;3.456;2023-04-15T01:52:29;24.90;;;23.60;;
55112;SDS011;41006;50.920;3.456;2023-04-15T01:53:00;24.25;;;23.05;;
55112;SDS011;41006;50.920;3.456;2023-04-15T01:53:30;24.90;;;23.60;;
55112;SDS011;41006;50.920;3.456;2023-04-15T01:54:01;25.00;;;23.67;;
55112;SDS011;41006;50.920;3.456;2023-04-15T01:54:31;24.00;;;22.38;;
55112;SDS011;41006;50.920;3.456;2023-04-15T01:55:04;24.23;;;22.83;;
55112;SDS011;41006;50.920;3.456;2023-04-15T01:55:37;24.08;;;22.77;;
55112;SDS011;41006;50.920;3.456;2023-04-15T01:56:07;24.15;;;22.60;;
55112;SDS011;41006;50.920;3.456;2023-04-15T01:56:40;23.45;;;22.25;;
55112;SDS011;41006;50.920;3.456;2023-04-15T01:57:11;23.98;;;22.35;;
55112;SDS011;41006;50.920;3.456;2023-04-15T01:57:41;23.40;;;22.00;;
55112;SDS011;41006;50.920;3.456;2023-04-15T01:58:12;23.85;;;22.55;;
55112;SDS011;41006;50.920;3.456;2023-04-15T01:58:42;24.00;;;22.63;;
55112;SDS011;41006;50.920;3.456;2023-04-15T01:59:12;24.33;;;23.10;;
55112;SDS011;41006;50.920;3.456;2023-04-15T01:59:45;24.60;;;23.27;;
55112;SDS011;41006;50.920;3.456;2023-04-15T02:00:17;23.60;;;22.38;;
55112;SDS011;41006;50.920;3.456;2023-04-15T02:00:48;24.00;;;22.60;;
55112;SDS011;41006;50.920;3.456;2023-04-15T02:01:18;23.75;;;22.50;;
55112;SDS011;41006;50.920;3.456;2023-04-15T02:01:48;24.90;;;23.40;;
55112;SDS011;41006;50.920;3.456;2023-04-15T02:02:21;24.95;;;23.42;;
55112;SDS011;41006;50.920;3.456;2023-04-15T02:02:54;24.77;;;23.38;;
55112;SDS011;41006;50.920;3.456;2023-04-15T02:03:24;23.60;;;22.20;;
55112;SDS011;41006;50.920;3.456;2023-04-15T02:03:57;24.30;;;22.80;;
55112;SDS011;41006;50.920;3.456;2023-04-15T02:04:28;24.70;;;23.25;;
55112;SDS011;41006;50.920;3.456;2023-04-15T02:05:00;24.80;;;23.30;;
55112;SDS011;41006;50.920;3.456;2023-04-15T02:05:30;24.80;;;23.33;;
55112;SDS011;41006;50.920;3.456;2023-04-15T02:06:01;24.90;;;23.50;;
55112;SDS011;41006;50.920;3.456;2023-04-15T02:06:31;24.42;;;23.00;;
55112;SDS011;41006;50.920;3.456;2023-04-15T02:07:02;24.75;;;23.35;;
55112;SDS011;41006;50.920;3.456;2023-04-15T02:07:32;24.27;;;22.77;;
55112;SDS011;41006;50.920;3.456;2023-04-15T02:08:02;25.13;;;23.67;;
55112;SDS011;41006;50.920;3.456;2023-04-15T02:08:32;24.15;;;22.85;;
55112;SDS011;41006;50.920;3.456;2023-04-15T02:09:05;25.05;;;23.13;;
55112;SDS011;41006;50.920;3.456;2023-04-15T02:09:40;24.15;;;22.48;;
55112;SDS011;41006;50.920;3.456;2023-04-15T02:10:15;23.40;;;22.10;;
55112;SDS011;41006;50.920;3.456;2023-04-15T02:10:45;22.98;;;21.67;;
55112;SDS011;41006;50.920;3.456;2023-04-15T02:11:20;21.63;;;20.48;;
55112;SDS011;41006;50.920;3.456;2023-04-15T02:11:51;22.27;;;20.98;;
55112;SDS011;41006;50.920;3.456;2023-04-15T02:12:23;23.05;;;21.75;;
55112;SDS011;41006;50.920;3.456;2023-04-15T02:12:53;23.00;;;21.70;;
55112;SDS011;41006;50.920;3.456;2023-04-15T02:13:25;21.58;;;19.92;;
55112;SDS011;41006;50.920;3.456;2023-04-15T02:13:58;22.33;;;20.27;;
55112;SDS011;41006;50.920;3.456;2023-04-15T02:14:28;19.90;;;18.70;;
55112;SDS011;41006;50.920;3.456;2023-04-15T02:14:58;20.88;;;19.50;;
55112;SDS011;41006;50.920;3.456;2023-04-15T02:15:29;22.48;;;21.02;;
55112;SDS011;41006;50.920;3.456;2023-04-15T02:15:59;22.65;;;21.35;;
55112;SDS011;41006;50.920;3.456;2023-04-15T02:16:30;22.73;;;21.35;;
55112;SDS011;41006;50.920;3.456;2023-04-15T02:17:03;22.77;;;21.45;;
55112;SDS011;41006;50.920;3.456;2023-04-15T02:17:37;21.35;;;20.10;;
55112;SDS011;41006;50.920;3.456;2023-04-15T02:18:09;21.83;;;20.67;;
55112;SDS011;41006;50.920;3.456;2023-04-15T02:18:40;22.17;;;20.98;;
55112;SDS011;41006;50.920;3.456;2023-04-15T02:19:10;21.67;;;20.42;;
55112;SDS011;41006;50.920;3.456;2023-04-15T02:19:41;22.40;;;21.10;;
55112;SDS011;41006;50.920;3.456;2023-04-15T02:20:11;21.30;;;20.20;;
55112;SDS011;41006;50.920;3.456;2023-04-15T02:20:42;22.55;;;21.17;;
55112;SDS011;41006;50.920;3.456;2023-04-15T02:21:13;22.33;;;21.05;;
55112;SDS011;41006;50.920;3.456;2023-04-15T02:21:45;22.60;;;21.20;;
55112;SDS011;41006;50.920;3.456;2023-04-15T02:22:15;23.23;;;21.73;;
55112;SDS011;41006;50.920;3.456;2023-04-15T02:22:49;21.73;;;20.63;;
55112;SDS011;41006;50.920;3.456;2023-04-15T02:23:20;22.38;;;21.23;;
55112;SDS011;41006;50.920;3.456;2023-04-15T02:23:50;23.38;;;22.00;;
55112;SDS011;41006;50.920;3.456;2023-04-15T02:24:23;24.27;;;22.83;;
55112;SDS011;41006;50.920;3.456;2023-04-15T02:24:55;23.20;;;21.95;;
55112;SDS011;41006;50.920;3.456;2023-04-15T02:25:25;22.83;;;21.52;;
55112;SDS011;41006;50.920;3.456;2023-04-15T02:25:58;23.38;;;22.08;;
55112;SDS011;41006;50.920;3.456;2023-04-15T02:26:28;23.02;;;21.73;;
55112;SDS011;41006;50.920;3.456;2023-04-15T02:27:01;22.38;;;20.77;;
55112;SDS011;41006;50.920;3.456;2023-04-15T02:27:35;22.65;;;21.25;;
55112;SDS011;41006;50.920;3.456;2023-04-15T02:28:07;22.92;;;21.30;;
55112;SDS011;41006;50.920;3.456;2023-04-15T02:28:41;21.95;;;20.83;;
55112;SDS011;41006;50.920;3.456;2023-04-15T02:29:13;22.35;;;21.05;;
55112;SDS011;41006;50.920;3.456;2023-04-15T02:29:44;22.95;;;21.55;;
55112;SDS011;41006;50.920;3.456;2023-04-15T02:30:17;21.75;;;20.52;;
55112;SDS011;41006;50.920;3.456;2023-04-15T02:30:50;22.58;;;21.05;;
55112;SDS011;41006;50.920;3.456;2023-04-15T02:31:22;22.30;;;20.90;;
55112;SDS011;41006;50.920;3.456;2023-04-15T02:31:52;21.27;;;19.88;;
55112;SDS011;41006;50.920;3.456;2023-04-15T02:32:25;19.77;;;18.52;;
55112;SDS011;41006;50.920;3.456;2023-04-15T02:32:58;19.80;;;18.55;;
55112;SDS011;41006;50.920;3.456;2023-04-15T02:33:28;19.58;;;18.38;;
55112;SDS011;41006;50.920;3.456;2023-04-15T02:33:59;19.50;;;18.25;;
55112;SDS011;41006;50.920;3.456;2023-04-15T02:34:29;19.10;;;17.70;;
55112;SDS011;41006;50.920;3.456;2023-04-15T02:35:05;19.67;;;18.42;;
55112;SDS011;41006;50.920;3.456;2023-04-15T02:35:38;20.60;;;19.40;;
55112;SDS011;41006;50.920;3.456;2023-04-15T02:36:13;19.88;;;18.77;;
55112;SDS011;41006;50.920;3.456;2023-04-15T02:36:45;20.90;;;19.42;;
55112;SDS011;41006;50.920;3.456;2023-04-15T02:37:17;19.65;;;18.48;;
55112;SDS011;41006;50.920;3.456;2023-04-15T02:37:50;20.73;;;19.33;;
55112;SDS011;41006;50.920;3.456;2023-04-15T02:38:20;21.00;;;19.50;;
55112;SDS011;41006;50.920;3.456;2023-04-15T02:38:51;21.25;;;19.95;;
55112;SDS011;41006;50.920;3.456;2023-04-15T02:39:21;20.63;;;19.33;;
55112;SDS011;41006;50.920;3.456;2023-04-15T02:39:51;20.60;;;19.40;;
55112;SDS011;41006;50.920;3.456;2023-04-15T02:40:24;21.13;;;19.85;;
55112;SDS011;41006;50.920;3.456;2023-04-15T02:40:58;20.52;;;19.27;;
55112;SDS011;41006;50.920;3.456;2023-04-15T02:41:30;22.05;;;20.77;;
55112;SDS011;41006;50.920;3.456;2023-04-15T02:42:05;21.48;;;20.23;;
55112;SDS011;41006;50.920;3.456;2023-04-15T02:42:38;21.83;;;20.60;;
55112;SDS011;41006;50.920;3.456;2023-04-15T02:43:09;23.17;;;21.55;;
55112;SDS011;41006;50.920;3.456;2023-04-15T02:43:39;22.33;;;21.02;;
55112;SDS011;41006;50.920;3.456;2023-04-15T02:44:09;23.38;;;21.98;;
55112;SDS011;41006;50.920;3.456;2023-04-15T02:44:41;24.15;;;22.33;;
55112;SDS011;41006;50.920;3.456;2023-04-15T02:45:12;23.98;;;22.42;;
55112;SDS011;41006;50.920;3.456;2023-04-15T02:45:47;23.50;;;21.90;;
55112;SDS011;41006;50.920;3.456;2023-04-15T02:46:20;22.45;;;21.15;;
55112;SDS011;41006;50.920;3.456;2023-04-15T02:46:52;22.27;;;20.98;;
55112;SDS011;41006;50.920;3.456;2023-04-15T02:47:26;23.65;;;22.25;;
55112;SDS011;41006;50.920;3.456;2023-04-15T02:47:58;23.33;;;21.77;;
55112;SDS011;41006;50.920;3.456;2023-04-15T02:48:32;23.35;;;21.85;;
55112;SDS011;41006;50.920;3.456;2023-04-15T02:49:05;22.27;;;20.88;;
55112;SDS011;41006;50.920;3.456;2023-04-15T02:49:39;24.60;;;22.95;;
55112;SDS011;41006;50.920;3.456;2023-04-15T02:50:11;22.63;;;21.33;;
55112;SDS011;41006;50.920;3.456;2023-04-15T02:50:44;22.50;;;21.25;;
55112;SDS011;41006;50.920;3.456;2023-04-15T02:51:15;24.50;;;22.98;;
55112;SDS011;41006;50.920;3.456;2023-04-15T02:51:46;22.88;;;21.48;;
55112;SDS011;41006;50.920;3.456;2023-04-15T02:52:21;23.58;;;22.00;;
55112;SDS011;41006;50.920;3.456;2023-04-15T02:52:51;23.50;;;22.00;;
55112;SDS011;41006;50.920;3.456;2023-04-15T02:53:24;22.67;;;21.17;;
55112;SDS011;41006;50.920;3.456;2023-04-15T02:53:57;23.45;;;21.92;;
55112;SDS011;41006;50.920;3.456;2023-04-15T02:54:27;23.73;;;22.10;;
55112;SDS011;41006;50.920;3.456;2023-04-15T02:54:57;24.33;;;22.70;;
55112;SDS011;41006;50.920;3.456;2023-04-15T02:55:31;23.83;;;22.40;;
55112;SDS011;41006;50.920;3.456;2023-04-15T02:56:01;24.75;;;23.25;;
55112;SDS011;41006;50.920;3.456;2023-04-15T02:56:32;24.25;;;22.65;;
55112;SDS011;41006;50.920;3.456;2023-04-15T02:57:04;23.55;;;22.15;;
55112;SDS011;41006;50.920;3.456;2023-04-15T02:57:35;22.63;;;21.13;;
55112;SDS011;41006;50.920;3.456;2023-04-15T02:58:10;23.20;;;21.80;;
55112;SDS011;41006;50.920;3.456;2023-04-15T02:58:42;22.70;;;21.10;;
55112;SDS011;41006;50.920;3.456;2023-04-15T02:59:13;23.05;;;21.65;;
55112;SDS011;41006;50.920;3.456;2023-04-15T02:59:48;21.85;;;20.45;;
55112;SDS011;41006;50.920;3.456;2023-04-15T03:00:18;23.33;;;21.83;;
55112;SDS011;41006;50.920;3.456;2023-04-15T03:00:49;22.30;;;21.00;;
55112;SDS011;41006;50.920;3.456;2023-04-15T03:01:20;24.27;;;22.58;;
55112;SDS011;41006;50.920;3.456;2023-04-15T03:01:55;23.88;;;22.27;;
55112;SDS011;41006;50.920;3.456;2023-04-15T03:02:33;24.42;;;22.83;;
55112;SDS011;41006;50.920;3.456;2023-04-15T03:03:03;23.83;;;22.50;;
55112;SDS011;41006;50.920;3.456;2023-04-15T03:03:34;24.52;;;22.83;;
55112;SDS011;41006;50.920;3.456;2023-04-15T03:04:04;23.90;;;22.35;;
55112;SDS011;41006;50.920;3.456;2023-04-15T03:04:36;24.52;;;22.85;;